createdAt,value
2023-05-03T00:00:52.883Z,16.60
2023-05-03T00:03:23.830Z,16.80
2023-05-03T00:05:57.491Z,14.65
2023-05-03T00:08:24.799Z,14.18
2023-05-03T00:10:58.536Z,16.50
2023-05-03T00:13:25.703Z,18.42
2023-05-03T00:15:59.614Z,14.23
2023-05-03T00:18:26.792Z,19.30
2023-05-03T00:20:55.202Z,18.42
2023-05-03T00:23:28.502Z,19.58
2023-05-03T00:26:02.539Z,12.38
2023-05-03T00:28:36.706Z,19.67
2023-05-03T00:31:10.388Z,14.75
2023-05-03T00:33:44.641Z,14.13
2023-05-03T00:36:12.735Z,17.83
2023-05-03T00:38:40.198Z,15.63
2023-05-03T00:41:14.775Z,16.02
2023-05-03T00:43:41.967Z,19.13
2023-05-03T00:46:16.726Z,16.83
2023-05-03T00:48:52.654Z,19.75
2023-05-03T00:51:20.643Z,27.25
2023-05-03T00:53:47.860Z,25.80
2023-05-03T00:56:24.502Z,28.73
2023-05-03T00:58:54.744Z,18.20
2023-05-03T01:01:28.790Z,31.30
2023-05-03T01:03:56.081Z,21.35
2023-05-03T01:06:38.558Z,18.50
2023-05-03T01:09:19.436Z,19.75
2023-05-03T01:11:53.665Z,13.25
2023-05-03T01:14:29.136Z,16.15
2023-05-03T01:17:05.543Z,19.13
2023-05-03T01:19:35.765Z,16.15
2023-05-03T01:22:18.695Z,15.95
2023-05-03T01:24:55.597Z,18.38
2023-05-03T01:27:29.518Z,13.73
2023-05-03T01:30:03.644Z,16.98
2023-05-03T01:32:35.433Z,24.45
2023-05-03T01:35:15.445Z,32.30
2023-05-03T01:37:43.393Z,14.35
2023-05-03T01:40:18.451Z,20.75
2023-05-03T01:42:45.714Z,17.67
2023-05-03T01:45:19.602Z,18.92
2023-05-03T01:47:46.942Z,28.92
2023-05-03T01:50:14.364Z,26.05
2023-05-03T01:52:48.653Z,22.02
2023-05-03T01:55:16.039Z,21.33
2023-05-03T01:57:49.654Z,21.92
2023-05-03T02:00:17.020Z,17.05
2023-05-03T02:05:18.536Z,23.08
2023-05-03T02:07:45.734Z,25.08
2023-05-03T02:10:21.694Z,27.73
2023-05-03T02:12:49.041Z,28.65
2023-05-03T02:15:16.830Z,29.90
2023-05-03T02:17:51.575Z,17.45
2023-05-03T02:20:19.303Z,23.13
2023-05-03T02:22:52.688Z,24.23
2023-05-03T02:25:27.669Z,21.88
2023-05-03T02:28:01.525Z,22.27
2023-05-03T02:30:29.672Z,21.88
2023-05-03T02:32:56.834Z,16.70
2023-05-03T02:35:30.557Z,17.00
2023-05-03T02:37:57.749Z,18.83
2023-05-03T02:40:31.693Z,24.52
2023-05-03T02:42:58.932Z,19.00
2023-05-03T02:45:26.085Z,26.10
2023-05-03T02:47:59.713Z,16.05
2023-05-03T02:50:27.358Z,17.90
2023-05-03T02:55:28.634Z,21.27
2023-05-03T02:57:56.263Z,11.57
2023-05-03T03:02:56.950Z,18.25
2023-05-03T03:05:24.099Z,19.42
2023-05-03T03:07:57.696Z,25.17
2023-05-03T03:10:24.947Z,20.83
2023-05-03T03:12:52.139Z,22.60
2023-05-03T03:15:25.647Z,27.40
2023-05-03T03:17:57.610Z,32.05
2023-05-03T03:20:31.532Z,15.30
2023-05-03T03:23:05.502Z,41.92
2023-05-03T03:25:45.702Z,24.13
2023-05-03T03:28:12.866Z,20.20
2023-05-03T03:30:39.956Z,14.48
2023-05-03T03:33:13.628Z,21.42
2023-05-03T03:35:41.351Z,23.10
2023-05-03T03:38:14.635Z,18.45
2023-05-03T03:40:48.509Z,21.80
2023-05-03T03:43:22.658Z,33.35
2023-05-03T03:45:50.389Z,37.97
2023-05-03T03:48:17.720Z,23.95
2023-05-03T03:50:51.687Z,20.38
2023-05-03T03:53:18.789Z,20.02
2023-05-03T03:55:52.754Z,28.75
2023-05-03T03:58:19.952Z,25.38
2023-05-03T04:00:47.205Z,17.77
2023-05-03T04:03:20.640Z,18.83
2023-05-03T04:05:47.805Z,11.02
2023-05-03T04:08:21.920Z,12.95
2023-05-03T04:10:49.214Z,25.23
2023-05-03T04:13:16.329Z,21.15
2023-05-03T04:15:50.539Z,10.20
2023-05-03T04:18:17.705Z,13.90
2023-05-03T04:20:51.575Z,11.90
2023-05-03T04:23:25.552Z,11.45
2023-05-03T04:26:00.590Z,14.40
2023-05-03T04:28:29.655Z,12.60
2023-05-03T04:30:58.852Z,10.35
2023-05-03T04:33:36.643Z,9.27
2023-05-03T04:36:04.533Z,12.88
2023-05-03T04:38:38.673Z,7.95
2023-05-03T04:41:06.602Z,12.30
2023-05-03T04:43:34.710Z,13.52
2023-05-03T04:46:09.759Z,10.93
2023-05-03T04:48:37.106Z,11.60
2023-05-03T04:51:04.312Z,10.23
2023-05-03T04:53:37.663Z,9.88
2023-05-03T04:56:04.950Z,12.10
2023-05-03T04:58:38.733Z,8.77
2023-05-03T05:01:07.197Z,10.88
2023-05-03T05:03:34.638Z,7.68
2023-05-03T05:06:08.766Z,8.75
2023-05-03T05:08:36.011Z,13.77
2023-05-03T05:11:06.259Z,10.52
2023-05-03T05:13:39.605Z,15.73
2023-05-03T05:16:06.841Z,11.20
2023-05-03T05:18:41.798Z,14.23
2023-05-03T05:21:08.972Z,12.40
2023-05-03T05:23:55.700Z,12.10
2023-05-03T05:26:22.905Z,8.85
2023-05-03T05:28:50.022Z,8.80
2023-05-03T05:31:23.638Z,8.10
2023-05-03T05:33:50.980Z,9.90
2023-05-03T05:36:24.751Z,9.00
2023-05-03T05:38:52.038Z,5.72
2023-05-03T05:41:19.226Z,7.72
2023-05-03T05:43:52.587Z,13.95
2023-05-03T05:46:21.397Z,10.35
2023-05-03T05:49:01.662Z,9.55
2023-05-03T05:51:30.543Z,15.10
2023-05-03T05:53:58.423Z,9.70
2023-05-03T05:56:32.577Z,9.45
2023-05-03T05:59:00.892Z,10.68
2023-05-03T06:01:34.806Z,6.70
2023-05-03T06:04:02.035Z,5.90
2023-05-03T06:06:29.166Z,6.95
2023-05-03T06:09:09.764Z,14.27
2023-05-03T06:11:44.195Z,5.05
2023-05-03T06:14:18.765Z,11.07
2023-05-03T06:16:46.061Z,4.95
2023-05-03T06:19:13.279Z,7.40
2023-05-03T06:21:46.653Z,9.23
2023-05-03T06:24:21.380Z,8.52
2023-05-03T06:26:55.654Z,8.25
2023-05-03T06:29:29.502Z,3.60
2023-05-03T06:32:03.629Z,7.10
2023-05-03T06:34:37.715Z,5.15
2023-05-03T06:37:24.756Z,7.63
2023-05-03T06:39:51.989Z,5.03
2023-05-03T06:42:19.290Z,7.32
2023-05-03T06:44:52.708Z,5.20
2023-05-03T06:47:27.587Z,5.80
2023-05-03T06:50:01.832Z,5.53
2023-05-03T06:52:35.544Z,14.40
2023-05-03T06:55:09.584Z,4.50
2023-05-03T06:57:43.538Z,5.50
2023-05-03T07:00:11.538Z,6.90
2023-05-03T07:02:38.784Z,4.78
2023-05-03T07:05:12.680Z,3.78
2023-05-03T07:07:39.949Z,2.65
2023-05-03T07:10:14.133Z,4.45
2023-05-03T07:12:41.425Z,5.72
2023-05-03T07:15:08.965Z,6.68
2023-05-03T07:17:42.678Z,5.95
2023-05-03T07:20:10.012Z,6.40
2023-05-03T07:22:48.812Z,3.63
2023-05-03T07:25:23.584Z,4.05
2023-05-03T07:27:57.748Z,4.47
2023-05-03T07:30:25.215Z,6.18
2023-05-03T07:32:52.458Z,5.28
2023-05-03T07:35:26.676Z,8.82
2023-05-03T07:37:54.073Z,2.92
2023-05-03T07:40:27.842Z,3.55
2023-05-03T07:42:55.136Z,4.32
2023-05-03T07:45:22.209Z,3.40
2023-05-03T07:47:55.643Z,3.17
2023-05-03T07:50:23.130Z,3.67
2023-05-03T07:52:58.795Z,3.33
2023-05-03T07:55:26.736Z,2.88
2023-05-03T07:57:58.473Z,4.15
2023-05-03T08:00:33.648Z,2.22
2023-05-03T08:03:03.745Z,1.38
2023-05-03T08:05:38.090Z,1.63
2023-05-03T08:08:05.656Z,2.22
2023-05-03T08:10:44.756Z,3.10
2023-05-03T08:13:12.137Z,3.42
2023-05-03T08:15:39.980Z,1.40
2023-05-03T08:18:13.674Z,1.55
2023-05-03T08:20:42.240Z,1.50
2023-05-03T08:23:22.930Z,2.88
2023-05-03T08:25:56.738Z,1.67
2023-05-03T08:28:30.654Z,1.05
2023-05-03T08:31:04.585Z,1.10
2023-05-03T08:33:38.767Z,0.95
2023-05-03T08:36:06.064Z,1.85
2023-05-03T08:38:34.071Z,0.95
2023-05-03T08:41:11.664Z,2.35
2023-05-03T08:43:40.873Z,1.08
2023-05-03T08:46:18.796Z,1.30
2023-05-03T08:48:48.444Z,1.73
2023-05-03T08:51:16.825Z,1.60
2023-05-03T08:53:50.806Z,2.17
2023-05-03T08:56:24.174Z,3.13
2023-05-03T08:58:57.656Z,1.10
2023-05-03T09:01:24.874Z,5.13
2023-05-03T09:03:52.896Z,1.95
2023-05-03T09:06:27.712Z,1.60
2023-05-03T09:08:55.498Z,3.08
2023-05-03T09:11:34.730Z,0.20
2023-05-03T09:14:12.110Z,0.68
2023-05-03T09:16:50.943Z,0.93
2023-05-03T09:19:18.355Z,1.70
2023-05-03T09:21:56.875Z,1.83
2023-05-03T09:24:30.767Z,2.90
2023-05-03T09:27:04.972Z,1.75
2023-05-03T09:29:34.154Z,2.03
2023-05-03T09:32:02.776Z,0.73
2023-05-03T09:34:36.635Z,0.90
2023-05-03T09:37:03.869Z,0.30
2023-05-03T09:39:37.653Z,4.55
2023-05-03T09:42:15.081Z,1.85
2023-05-03T09:44:55.685Z,1.65
2023-05-03T09:47:25.356Z,6.22
2023-05-03T09:49:52.627Z,1.08
2023-05-03T09:52:26.696Z,1.20
2023-05-03T09:54:54.665Z,1.38
2023-05-03T09:57:28.639Z,3.47
2023-05-03T09:59:55.967Z,1.15
2023-05-03T10:02:29.929Z,1.17
2023-05-03T10:04:59.042Z,0.98
2023-05-03T10:07:27.884Z,1.50
2023-05-03T10:10:04.644Z,1.08
2023-05-03T10:12:34.753Z,0.63
2023-05-03T10:15:09.930Z,1.27
2023-05-03T10:17:47.727Z,3.25
2023-05-03T10:20:27.749Z,1.08
2023-05-03T10:23:10.592Z,3.47
2023-05-03T10:26:22.523Z,2.17
2023-05-03T10:28:56.593Z,2.55
2023-05-03T10:31:42.524Z,0.65
2023-05-03T10:34:27.602Z,1.77
2023-05-03T10:36:55.098Z,0.98
2023-05-03T10:39:28.660Z,1.35
2023-05-03T10:42:08.992Z,0.90
2023-05-03T10:44:45.827Z,0.93
2023-05-03T10:47:40.794Z,1.73
2023-05-03T10:50:23.766Z,1.08
2023-05-03T10:52:51.228Z,0.68
2023-05-03T10:55:19.401Z,2.45
2023-05-03T10:57:54.721Z,1.50
2023-05-03T11:00:31.291Z,0.75
2023-05-03T11:03:23.786Z,1.73
2023-05-03T11:05:51.815Z,1.60
2023-05-03T11:08:20.109Z,2.67
2023-05-03T11:10:54.671Z,1.70
2023-05-03T11:13:21.904Z,2.17
2023-05-03T11:15:56.857Z,1.05
2023-05-03T11:18:26.070Z,1.00
2023-05-03T11:20:54.111Z,0.65
2023-05-03T11:23:31.899Z,0.88
2023-05-03T11:26:09.834Z,1.20
2023-05-03T11:28:49.704Z,1.40
2023-05-03T11:31:23.687Z,2.20
2023-05-03T11:33:58.065Z,1.65
2023-05-03T11:36:27.899Z,0.75
2023-05-03T11:38:55.063Z,2.20
2023-05-03T11:41:28.675Z,2.70
2023-05-03T11:44:07.627Z,0.75
2023-05-03T11:46:57.042Z,0.43
2023-05-03T11:49:24.817Z,0.47
2023-05-03T11:51:58.794Z,0.88
2023-05-03T11:54:28.035Z,1.30
2023-05-03T11:57:05.781Z,1.75
2023-05-03T11:59:39.958Z,0.63
2023-05-03T12:02:15.938Z,1.58
2023-05-03T12:04:45.353Z,1.00
2023-05-03T12:07:15.287Z,0.50
2023-05-03T12:10:09.537Z,0.40
2023-05-03T12:12:43.239Z,3.30
2023-05-03T12:15:21.497Z,1.33
2023-05-03T12:17:50.732Z,3.20
2023-05-03T12:21:18.726Z,0.50
2023-05-03T12:23:20.918Z,0.65
2023-05-03T12:26:03.613Z,1.42
2023-05-03T12:28:39.678Z,2.03
2023-05-03T12:31:07.125Z,0.68
2023-05-03T12:33:43.360Z,0.38
2023-05-03T12:36:14.501Z,0.90
2023-05-03T12:38:50.547Z,0.55
2023-05-03T12:41:39.961Z,1.25
2023-05-03T12:44:11.859Z,9.13
2023-05-03T12:46:39.683Z,1.10
2023-05-03T12:49:08.473Z,1.17
2023-05-03T12:51:43.335Z,2.25
2023-05-03T12:54:12.161Z,1.27
2023-05-03T12:56:48.245Z,0.50
2023-05-03T13:04:55.916Z,0.82
2023-05-03T13:07:28.207Z,0.77
2023-05-03T13:12:33.924Z,0.40
2023-05-03T13:15:03.709Z,0.45
2023-05-03T13:17:32.234Z,1.00
2023-05-03T13:20:06.931Z,0.85
2023-05-03T13:22:34.298Z,0.38
2023-05-03T13:25:15.011Z,0.20
2023-05-03T13:27:50.621Z,0.57
2023-05-03T13:30:25.036Z,0.52
2023-05-03T13:32:52.908Z,0.45
2023-05-03T13:35:20.238Z,0.95
2023-05-03T13:37:53.737Z,0.65
2023-05-03T13:40:20.960Z,1.90
2023-05-03T13:42:55.046Z,1.08
2023-05-03T13:45:22.246Z,2.50
2023-05-03T13:48:09.579Z,0.55
2023-05-03T13:50:42.810Z,4.05
2023-05-03T13:53:09.913Z,2.38
2023-05-03T13:55:43.894Z,2.80
2023-05-03T13:58:11.049Z,1.50
2023-05-03T14:00:38.146Z,4.30
2023-05-03T14:03:13.891Z,6.25
2023-05-03T14:05:41.284Z,2.67
2023-05-03T14:08:14.921Z,0.50
2023-05-03T14:10:42.475Z,0.68
2023-05-03T14:15:50.981Z,1.42
2023-05-03T14:18:18.437Z,0.95
2023-05-03T14:20:57.062Z,4.65
2023-05-03T14:23:24.437Z,1.13
2023-05-03T14:26:04.016Z,1.55
2023-05-03T14:28:31.817Z,0.63
2023-05-03T14:30:59.105Z,0.55
2023-05-03T14:33:32.772Z,3.42
2023-05-03T14:36:06.896Z,0.85
2023-05-03T14:38:34.250Z,1.70
2023-05-03T14:41:01.392Z,0.82
2023-05-03T14:43:34.695Z,4.20
2023-05-03T14:46:02.043Z,0.93
2023-05-03T14:48:36.005Z,2.90
2023-05-03T14:51:03.764Z,0.68
2023-05-03T14:53:31.028Z,2.10
2023-05-03T14:56:04.959Z,0.93
2023-05-03T14:58:33.033Z,2.22
2023-05-03T15:01:00.167Z,1.05
2023-05-03T15:03:33.825Z,0.57
2023-05-03T15:06:01.156Z,5.75
2023-05-03T15:08:36.009Z,1.30
2023-05-03T15:11:03.475Z,1.00
2023-05-03T15:13:30.732Z,2.33
2023-05-03T15:16:04.868Z,0.82
2023-05-03T15:18:32.210Z,2.67
2023-05-03T15:21:05.915Z,0.73
2023-05-03T15:23:33.261Z,1.20
2023-05-03T15:26:14.020Z,0.45
2023-05-03T15:28:41.241Z,0.35
2023-05-03T15:31:08.369Z,1.17
2023-05-03T15:33:47.779Z,0.52
2023-05-03T15:36:16.918Z,2.00
2023-05-03T15:38:51.039Z,0.98
2023-05-03T15:41:18.274Z,1.52
2023-05-03T15:43:46.296Z,1.02
2023-05-03T15:46:19.937Z,2.40
2023-05-03T15:48:47.240Z,0.50
2023-05-03T15:51:21.092Z,0.77
2023-05-03T15:53:48.544Z,0.73
2023-05-03T15:56:16.058Z,0.77
2023-05-03T15:58:50.110Z,0.40
2023-05-03T16:01:18.677Z,0.63
2023-05-03T16:03:52.789Z,2.58
2023-05-03T16:06:20.000Z,1.13
2023-05-03T16:08:53.924Z,1.65
2023-05-03T16:11:21.681Z,0.57
2023-05-03T16:13:50.328Z,1.38
2023-05-03T16:16:37.970Z,1.00
2023-05-03T16:19:11.877Z,1.75
2023-05-03T16:21:45.965Z,0.98
2023-05-03T16:24:32.740Z,2.83
2023-05-03T16:27:06.833Z,1.63
2023-05-03T16:29:41.744Z,2.05
2023-05-03T16:32:10.976Z,1.25
2023-05-03T16:34:44.894Z,1.25
2023-05-03T16:37:12.153Z,0.60
2023-05-03T16:39:39.494Z,1.75
2023-05-03T16:42:14.033Z,1.83
2023-05-03T16:44:41.352Z,0.63
2023-05-03T16:47:08.621Z,1.70
2023-05-03T16:49:42.884Z,0.85
2023-05-03T16:52:10.500Z,1.25
2023-05-03T16:57:12.073Z,0.47
2023-05-03T16:59:39.168Z,0.82
2023-05-03T17:02:12.872Z,2.58
2023-05-03T17:04:40.160Z,0.63
2023-05-03T17:07:14.000Z,0.70
2023-05-03T17:09:41.444Z,1.77
2023-05-03T17:12:08.550Z,2.22
2023-05-03T17:14:41.834Z,1.48
2023-05-03T17:17:10.110Z,1.45
2023-05-03T17:19:57.006Z,3.35
2023-05-03T17:22:24.252Z,0.77
2023-05-03T17:25:11.968Z,1.80
2023-05-03T17:27:39.236Z,2.75
2023-05-03T17:30:07.344Z,0.90
2023-05-03T17:32:41.041Z,1.55
2023-05-03T17:35:08.447Z,2.05
2023-05-03T17:37:35.762Z,1.60
2023-05-03T17:40:10.332Z,0.57
2023-05-03T17:42:37.531Z,1.45
2023-05-03T17:45:11.986Z,0.50
2023-05-03T17:47:39.207Z,1.55
2023-05-03T17:50:06.727Z,0.77
2023-05-03T17:55:08.443Z,1.50
2023-05-03T17:57:37.401Z,1.60
2023-05-03T18:00:12.172Z,1.25
2023-05-03T18:02:39.526Z,1.10
2023-05-03T18:05:07.476Z,0.40
2023-05-03T18:07:40.893Z,0.77
2023-05-03T18:10:09.310Z,0.50
2023-05-03T18:12:43.181Z,3.95
2023-05-03T18:15:10.604Z,1.30
2023-05-03T18:17:37.737Z,1.17
2023-05-03T18:20:13.130Z,1.02
2023-05-03T18:22:40.320Z,1.20
2023-05-03T18:25:26.994Z,1.75
2023-05-03T18:27:54.213Z,1.92
2023-05-03T18:30:21.348Z,5.43
2023-05-03T18:32:55.040Z,0.82
2023-05-03T18:35:22.568Z,4.80
2023-05-03T18:37:56.082Z,2.80
2023-05-03T18:40:24.836Z,1.15
2023-05-03T18:42:51.938Z,0.75
2023-05-03T18:45:26.886Z,1.85
2023-05-03T18:47:54.061Z,1.05
2023-05-03T18:50:28.057Z,0.90
2023-05-03T18:52:55.476Z,2.97
2023-05-03T18:55:23.482Z,0.60
2023-05-03T18:57:56.849Z,0.75
2023-05-03T19:00:24.073Z,4.93
2023-05-03T19:02:58.288Z,0.60
2023-05-03T19:05:25.601Z,1.13
2023-05-03T19:07:52.720Z,0.47
2023-05-03T19:10:27.949Z,0.90
2023-05-03T19:12:55.187Z,2.17
2023-05-03T19:15:29.117Z,2.72
2023-05-03T19:17:56.853Z,1.25
2023-05-03T19:20:24.094Z,1.50
2023-05-03T19:22:57.941Z,1.50
2023-05-03T19:25:45.830Z,0.60
2023-05-03T19:28:20.026Z,1.55
2023-05-03T19:30:51.407Z,1.50
2023-05-03T19:33:19.239Z,2.50
2023-05-03T19:35:53.264Z,1.00
2023-05-03T19:38:20.953Z,1.52
2023-05-03T19:41:04.113Z,0.73
2023-05-03T19:43:31.371Z,1.95
2023-05-03T19:45:58.488Z,1.42
2023-05-03T19:48:32.990Z,0.70
2023-05-03T19:51:00.258Z,4.53
2023-05-03T19:53:28.294Z,2.80
2023-05-03T19:56:06.005Z,0.95
2023-05-03T19:58:33.273Z,1.58
2023-05-03T20:01:00.405Z,1.13
2023-05-03T20:03:34.023Z,3.28
2023-05-03T20:06:01.502Z,0.82
2023-05-03T20:08:35.211Z,1.85
2023-05-03T20:11:02.562Z,1.67
2023-05-03T20:13:30.269Z,1.10
2023-05-03T20:16:03.993Z,0.90
2023-05-03T20:18:31.326Z,0.73
2023-05-03T20:20:58.413Z,4.90
2023-05-03T20:23:31.982Z,4.10
2023-05-03T20:26:05.843Z,2.08
2023-05-03T20:28:42.038Z,1.58
2023-05-03T20:31:10.862Z,1.05
2023-05-03T20:33:38.114Z,1.00
2023-05-03T20:36:12.808Z,2.65
2023-05-03T20:38:39.964Z,2.13
2023-05-03T20:41:13.977Z,0.80
2023-05-03T20:43:41.221Z,0.88
2023-05-03T20:46:15.193Z,1.65
2023-05-03T20:48:42.548Z,4.90
2023-05-03T20:51:09.820Z,1.08
2023-05-03T20:53:43.885Z,3.10
2023-05-03T20:56:11.395Z,0.80
2023-05-03T20:58:45.056Z,2.63
2023-05-03T21:01:12.377Z,0.82
2023-05-03T21:03:39.589Z,1.50
2023-05-03T21:06:13.928Z,1.90
2023-05-03T21:08:41.134Z,1.05
2023-05-03T21:11:15.271Z,1.40
2023-05-03T21:13:43.090Z,1.80
2023-05-03T21:16:10.239Z,1.08
2023-05-03T21:18:43.938Z,2.40
2023-05-03T21:21:11.119Z,1.33
2023-05-03T21:23:45.180Z,2.00
2023-05-03T21:26:18.958Z,2.63
2023-05-03T21:28:59.151Z,2.15
2023-05-03T21:31:27.174Z,3.00
2023-05-03T21:33:54.683Z,4.35
2023-05-03T21:36:28.001Z,1.77
2023-05-03T21:38:55.217Z,2.83
2023-05-03T21:41:30.121Z,2.03
2023-05-03T21:43:57.260Z,3.25
2023-05-03T21:46:24.371Z,2.83
2023-05-03T21:48:58.088Z,5.30
2023-05-03T21:51:25.716Z,1.35
2023-05-03T21:56:26.924Z,1.10
2023-05-03T21:58:54.145Z,2.20
2023-05-03T22:01:28.146Z,1.48
2023-05-03T22:03:55.519Z,1.77
2023-05-03T22:06:22.790Z,1.30
2023-05-03T22:08:57.057Z,2.40
2023-05-03T22:11:24.284Z,2.13
2023-05-03T22:14:07.379Z,2.85
2023-05-03T22:16:35.148Z,1.27
2023-05-03T22:19:09.178Z,2.15
2023-05-03T22:21:36.427Z,1.45
2023-05-03T22:24:04.436Z,3.42
2023-05-03T22:26:37.902Z,2.28
2023-05-03T22:29:05.373Z,1.83
2023-05-03T22:31:39.085Z,2.85
2023-05-03T22:34:06.270Z,1.70
2023-05-03T22:36:33.390Z,1.80
2023-05-03T22:39:12.165Z,1.67
2023-05-03T22:41:39.313Z,2.22
2023-05-03T22:44:06.641Z,3.45
2023-05-03T22:46:40.943Z,1.60
2023-05-03T22:49:08.569Z,2.92
2023-05-03T22:54:09.257Z,1.88
2023-05-03T22:56:36.366Z,1.65
2023-05-03T22:59:09.911Z,2.30
2023-05-03T23:01:37.495Z,3.60
2023-05-03T23:06:38.347Z,2.92
2023-05-03T23:09:06.062Z,1.77
2023-05-03T23:11:40.162Z,2.13
2023-05-03T23:14:07.418Z,3.97
2023-05-03T23:16:34.579Z,2.85
2023-05-03T23:19:09.245Z,2.80
2023-05-03T23:21:36.404Z,1.58
2023-05-03T23:24:03.505Z,1.65
2023-05-03T23:26:36.995Z,4.20
2023-05-03T23:29:04.541Z,3.15
2023-05-03T23:34:06.982Z,2.65
2023-05-03T23:36:34.274Z,3.97
2023-05-03T23:39:08.006Z,2.60
2023-05-03T23:41:35.312Z,3.67
2023-05-03T23:44:10.097Z,3.30
2023-05-03T23:46:37.779Z,2.72
2023-05-03T23:49:04.976Z,3.00
2023-05-03T23:51:38.935Z,1.85
2023-05-03T23:54:06.262Z,1.75
2023-05-03T23:56:40.081Z,3.55
2023-05-03T23:59:07.305Z,1.85
